createdAt,value
2016-05-10T00:01:50.066Z,1014.59
2016-05-10T00:02:49.476Z,1014.56
2016-05-10T00:03:49.463Z,1014.55
2016-05-10T00:04:49.466Z,1014.5
2016-05-10T00:05:49.468Z,1014.53
2016-05-10T00:06:49.455Z,1014.5
2016-05-10T00:07:49.458Z,1014.51
2016-05-10T00:08:49.460Z,1014.48
2016-05-10T00:09:49.448Z,1014.49
2016-05-10T00:10:49.466Z,1014.43
2016-05-10T00:11:49.454Z,1014.46
2016-05-10T00:12:49.483Z,1014.46
2016-05-10T00:13:49.511Z,1014.45
2016-05-10T00:14:50.149Z,1014.45
2016-05-10T00:15:49.599Z,1014.41
2016-05-10T00:16:49.627Z,1014.43
2016-05-10T00:17:49.653Z,1014.45
2016-05-10T00:18:49.670Z,1014.46
2016-05-10T00:19:49.672Z,1014.47
2016-05-10T00:20:49.690Z,1014.46
2016-05-10T00:21:49.707Z,1014.46
2016-05-10T00:22:49.718Z,1014.46
2016-05-10T00:23:49.710Z,1014.48
2016-05-10T00:24:49.719Z,1014.41
2016-05-10T00:25:49.726Z,1014.45
2016-05-10T00:26:49.719Z,1014.44
2016-05-10T00:27:49.725Z,1014.44
2016-05-10T00:28:49.714Z,1014.4
2016-05-10T00:29:49.735Z,1014.43
2016-05-10T00:30:49.723Z,1014.46
2016-05-10T00:31:49.744Z,1014.44
2016-05-10T00:32:49.715Z,1014.41
2016-05-10T00:33:49.719Z,1014.42
2016-05-10T00:34:49.707Z,1014.45
2016-05-10T00:35:49.711Z,1014.45
2016-05-10T00:36:49.714Z,1014.45
2016-05-10T00:37:49.701Z,1014.41
2016-05-10T00:38:49.705Z,1014.44
2016-05-10T00:39:49.707Z,1014.42
2016-05-10T00:40:49.710Z,1014.45
2016-05-10T00:41:49.697Z,1014.44
2016-05-10T00:42:49.700Z,1014.47
2016-05-10T00:43:49.688Z,1014.46
2016-05-10T00:44:50.018Z,1014.48
2016-05-10T00:45:49.694Z,1014.46
2016-05-10T00:46:49.680Z,1014.5
2016-05-10T00:47:49.683Z,1014.49
2016-05-10T00:48:49.686Z,1014.46
2016-05-10T00:49:49.673Z,1014.44
2016-05-10T00:50:49.676Z,1014.45
2016-05-10T00:51:49.678Z,1014.43
2016-05-10T00:52:49.665Z,1014.43
2016-05-10T00:53:49.668Z,1014.43
2016-05-10T00:54:49.671Z,1014.44
2016-05-10T00:55:49.658Z,1014.44
2016-05-10T00:56:49.660Z,1014.4
2016-05-10T00:57:49.663Z,1014.37
2016-05-10T00:58:49.665Z,1014.37
2016-05-10T00:59:49.653Z,1014.38
2016-05-10T01:00:49.656Z,1014.38
2016-05-10T01:01:49.642Z,1014.39
2016-05-10T01:02:49.645Z,1014.39
2016-05-10T01:03:49.632Z,1014.35
2016-05-10T01:04:49.635Z,1014.37
2016-05-10T01:05:49.637Z,1014.33
2016-05-10T01:06:50.234Z,1014.34
2016-05-10T01:07:49.628Z,1014.37
2016-05-10T01:08:50.192Z,1014.41
2016-05-10T01:09:49.617Z,1014.35
2016-05-10T01:10:49.776Z,1014.37
2016-05-10T01:11:49.622Z,1014.36
2016-05-10T01:12:49.610Z,1014.37
2016-05-10T01:13:49.613Z,1014.38
2016-05-10T01:14:50.709Z,1014.38
2016-05-10T01:15:49.602Z,1014.37
2016-05-10T01:16:49.652Z,1014.38
2016-05-10T01:17:49.592Z,1014.36
2016-05-10T01:18:49.594Z,1014.35
2016-05-10T01:19:50.394Z,1014.33
2016-05-10T01:20:50.491Z,1014.31
2016-05-10T01:21:49.587Z,1014.35
2016-05-10T01:22:49.590Z,1014.35
2016-05-10T01:23:49.577Z,1014.4
2016-05-10T01:24:49.580Z,1014.34
2016-05-10T01:25:49.566Z,1014.37
2016-05-10T01:26:49.569Z,1014.33
2016-05-10T01:27:49.571Z,1014.34
2016-05-10T01:28:49.574Z,1014.34
2016-05-10T01:29:49.562Z,1014.33
2016-05-10T01:30:49.564Z,1014.29
2016-05-10T01:31:49.551Z,1014.32
2016-05-10T01:32:49.554Z,1014.35
2016-05-10T01:33:49.557Z,1014.31
2016-05-10T01:34:49.544Z,1014.35
2016-05-10T01:35:49.547Z,1014.33
2016-05-10T01:36:49.550Z,1014.26
2016-05-10T01:37:49.536Z,1014.33
2016-05-10T01:38:49.539Z,1014.32
2016-05-10T01:39:49.526Z,1014.28
2016-05-10T01:40:49.529Z,1014.28
2016-05-10T01:41:49.531Z,1014.29
2016-05-10T01:42:49.534Z,1014.27
2016-05-10T01:43:49.521Z,1014.27
2016-05-10T01:44:49.524Z,1014.25
2016-05-10T01:45:49.511Z,1014.26
2016-05-10T01:46:49.514Z,1014.24
2016-05-10T01:47:49.501Z,1014.29
2016-05-10T01:48:49.503Z,1014.26
2016-05-10T01:49:49.505Z,1014.24
2016-05-10T01:50:49.493Z,1014.24
2016-05-10T01:51:49.496Z,1014.22
2016-05-10T01:52:49.499Z,1014.22
2016-05-10T01:53:49.486Z,1014.19
2016-05-10T01:54:49.488Z,1014.24
2016-05-10T01:55:49.476Z,1014.22
2016-05-10T01:56:49.478Z,1014.22
2016-05-10T01:57:49.482Z,1014.22
2016-05-10T01:58:49.468Z,1014.25
2016-05-10T01:59:49.471Z,1014.2
2016-05-10T02:00:49.457Z,1014.21
2016-05-10T02:01:49.460Z,1014.19
2016-05-10T02:02:49.462Z,1014.16
2016-05-10T02:03:49.450Z,1014.17
2016-05-10T02:04:49.453Z,1014.16
2016-05-10T02:05:49.440Z,1014.19
2016-05-10T02:06:49.443Z,1014.18
2016-05-10T02:07:49.445Z,1014.18
2016-05-10T02:08:49.431Z,1014.16
2016-05-10T02:09:49.434Z,1014.17
2016-05-10T02:10:49.437Z,1014.17
2016-05-10T02:11:49.425Z,1014.16
2016-05-10T02:12:49.428Z,1014.14
2016-05-10T02:13:49.414Z,1014.16
2016-05-10T02:14:49.417Z,1014.12
2016-05-10T02:15:49.419Z,1014.15
2016-05-10T02:16:49.407Z,1014.11
2016-05-10T02:17:49.410Z,1014.12
2016-05-10T02:18:49.397Z,1014.11
2016-05-10T02:19:49.399Z,1014.09
2016-05-10T02:20:49.402Z,1014.04
2016-05-10T02:21:50.702Z,1014.06
2016-05-10T02:22:49.391Z,1014.03
2016-05-10T02:23:50.629Z,1014.02
2016-05-10T02:24:50.663Z,1014
2016-05-10T02:25:49.385Z,1013.95
2016-05-10T02:26:49.371Z,1013.95
2016-05-10T02:27:49.374Z,1013.96
2016-05-10T02:28:49.361Z,1013.96
2016-05-10T02:29:49.363Z,1013.99
2016-05-10T02:30:49.773Z,1013.94
2016-05-10T02:31:49.353Z,1013.94
2016-05-10T02:32:49.356Z,1013.95
2016-05-10T02:33:49.359Z,1013.96
2016-05-10T02:34:49.346Z,1013.94
2016-05-10T02:35:49.490Z,1013.96
2016-05-10T02:36:49.336Z,1013.92
2016-05-10T02:37:49.338Z,1013.9
2016-05-10T02:38:49.481Z,1013.91
2016-05-10T02:39:49.390Z,1013.89
2016-05-10T02:40:50.222Z,1013.84
2016-05-10T02:41:49.318Z,1013.86
2016-05-10T02:42:49.320Z,1013.86
2016-05-10T02:43:49.714Z,1013.84
2016-05-10T02:44:49.310Z,1013.85
2016-05-10T02:45:49.298Z,1013.82
2016-05-10T02:46:49.300Z,1013.81
2016-05-10T02:47:49.302Z,1013.8
2016-05-10T02:48:49.290Z,1013.82
2016-05-10T02:49:49.292Z,1013.8
2016-05-10T02:50:49.279Z,1013.75
2016-05-10T02:51:49.283Z,1013.75
2016-05-10T02:52:49.269Z,1013.8
2016-05-10T02:53:49.272Z,1013.77
2016-05-10T02:54:49.275Z,1013.8
2016-05-10T02:55:49.262Z,1013.77
2016-05-10T02:56:49.265Z,1013.81
2016-05-10T02:57:49.251Z,1013.79
2016-05-10T02:58:49.254Z,1013.8
2016-05-10T02:59:49.257Z,1013.76
2016-05-10T03:00:49.243Z,1013.77
2016-05-10T03:01:49.247Z,1013.75
2016-05-10T03:02:49.234Z,1013.77
2016-05-10T03:03:49.237Z,1013.68
2016-05-10T03:04:49.223Z,1013.78
2016-05-10T03:05:49.226Z,1013.76
2016-05-10T03:06:49.229Z,1013.71
2016-05-10T03:07:49.215Z,1013.72
2016-05-10T03:08:49.218Z,1013.73
2016-05-10T03:09:49.221Z,1013.72
2016-05-10T03:10:49.208Z,1013.74
2016-05-10T03:11:49.211Z,1013.73
2016-05-10T03:12:49.198Z,1013.74
2016-05-10T03:13:49.201Z,1013.79
2016-05-10T03:14:49.188Z,1013.73
2016-05-10T03:15:49.191Z,1013.7
2016-05-10T03:16:49.193Z,1013.69
2016-05-10T03:17:49.181Z,1013.75
2016-05-10T03:18:49.183Z,1013.67
2016-05-10T03:19:49.169Z,1013.67
2016-05-10T03:20:49.173Z,1013.69
2016-05-10T03:21:49.160Z,1013.69
2016-05-10T03:22:49.162Z,1013.65
2016-05-10T03:23:49.165Z,1013.66
2016-05-10T03:24:49.152Z,1013.67
2016-05-10T03:25:49.155Z,1013.66
2016-05-10T03:26:49.142Z,1013.64
2016-05-10T03:27:49.144Z,1013.67
2016-05-10T03:28:49.132Z,1013.64
2016-05-10T03:29:49.135Z,1013.67
2016-05-10T03:30:49.137Z,1013.66
2016-05-10T03:31:49.124Z,1013.68
2016-05-10T03:32:49.127Z,1013.68
2016-05-10T03:33:49.114Z,1013.69
2016-05-10T03:34:49.117Z,1013.7
2016-05-10T03:35:49.120Z,1013.71
2016-05-10T03:36:49.106Z,1013.72
2016-05-10T03:37:49.110Z,1013.75
2016-05-10T03:38:49.095Z,1013.71
2016-05-10T03:39:49.098Z,1013.74
2016-05-10T03:40:49.992Z,1013.76
2016-05-10T03:42:49.092Z,1013.76
2016-05-10T03:43:49.078Z,1013.76
2016-05-10T03:44:49.081Z,1013.76
2016-05-10T03:45:49.068Z,1013.74
2016-05-10T03:46:49.070Z,1013.78
2016-05-10T03:47:49.073Z,1013.74
2016-05-10T03:48:49.061Z,1013.75
2016-05-10T03:49:49.611Z,1013.75
2016-05-10T03:51:50.255Z,1013.76
2016-05-10T03:52:49.040Z,1013.77
2016-05-10T03:53:49.043Z,1013.85
2016-05-10T03:54:49.092Z,1013.81
2016-05-10T03:55:49.033Z,1013.83
2016-05-10T03:56:49.036Z,1013.87
2016-05-10T03:57:49.038Z,1013.82
2016-05-10T03:58:49.024Z,1013.81
2016-05-10T03:59:49.027Z,1013.8
2016-05-10T04:00:49.421Z,1013.83
2016-05-10T04:01:49.158Z,1013.83
2016-05-10T04:02:49.004Z,1013.79
2016-05-10T04:03:49.007Z,1013.84
2016-05-10T04:04:49.009Z,1013.83
2016-05-10T04:05:48.996Z,1013.81
2016-05-10T04:06:48.999Z,1013.85
2016-05-10T04:07:49.002Z,1013.83
2016-05-10T04:08:49.005Z,1013.84
2016-05-10T04:09:48.992Z,1013.8
2016-05-10T04:10:49.010Z,1013.77
2016-05-10T04:11:48.998Z,1013.79
2016-05-10T04:12:48.984Z,1013.77
2016-05-10T04:13:48.987Z,1013.79
2016-05-10T04:14:49.115Z,1013.74
2016-05-10T04:15:48.977Z,1013.72
2016-05-10T04:16:48.980Z,1013.77
2016-05-10T04:17:48.983Z,1013.73
2016-05-10T04:18:48.985Z,1013.75
2016-05-10T04:19:48.988Z,1013.79
2016-05-10T04:20:48.974Z,1013.75
2016-05-10T04:21:48.977Z,1013.75
2016-05-10T04:22:48.980Z,1013.82
2016-05-10T04:23:48.983Z,1013.79
2016-05-10T04:24:48.986Z,1013.73
2016-05-10T04:25:48.973Z,1013.71
2016-05-10T04:26:48.975Z,1013.7
2016-05-10T04:27:48.977Z,1013.73
2016-05-10T04:28:48.980Z,1013.74
2016-05-10T04:29:48.983Z,1013.71
2016-05-10T04:30:48.986Z,1013.72
2016-05-10T04:31:48.989Z,1013.66
2016-05-10T04:32:48.976Z,1013.68
2016-05-10T04:33:48.978Z,1013.64
2016-05-10T04:34:48.982Z,1013.68
2016-05-10T04:35:48.984Z,1013.68
2016-05-10T04:36:48.987Z,1013.69
2016-05-10T04:37:48.990Z,1013.72
2016-05-10T04:38:48.992Z,1013.77
2016-05-10T04:39:48.995Z,1013.73
2016-05-10T04:40:48.997Z,1013.75
2016-05-10T04:41:49.000Z,1013.74
2016-05-10T04:42:49.003Z,1013.75
2016-05-10T04:43:49.006Z,1013.79
2016-05-10T04:44:49.009Z,1013.81
2016-05-10T04:45:49.026Z,1013.78
2016-05-10T04:46:49.013Z,1013.81
2016-05-10T04:47:49.016Z,1013.8
2016-05-10T04:48:49.034Z,1013.81
2016-05-10T04:49:49.037Z,1013.78
2016-05-10T04:50:49.040Z,1013.8
2016-05-10T04:51:49.042Z,1013.83
2016-05-10T04:52:49.044Z,1013.87
2016-05-10T04:53:49.047Z,1013.85
2016-05-10T04:54:49.050Z,1013.86
2016-05-10T04:55:49.069Z,1013.89
2016-05-10T04:56:49.071Z,1013.91
2016-05-10T04:57:49.075Z,1013.93
2016-05-10T04:58:49.077Z,1013.92
2016-05-10T04:59:49.080Z,1013.94
2016-05-10T05:00:49.302Z,1013.95
2016-05-10T05:01:49.101Z,1013.94
2016-05-10T05:02:49.885Z,1013.97
2016-05-10T05:03:49.106Z,1014.06
2016-05-10T05:04:49.124Z,1014.07
2016-05-10T05:05:49.143Z,1014.11
2016-05-10T05:06:49.129Z,1014.11
2016-05-10T05:07:49.148Z,1014.14
2016-05-10T05:08:49.151Z,1014.1
2016-05-10T05:09:50.387Z,1014.19
2016-05-10T05:10:49.172Z,1014.26
2016-05-10T05:11:49.174Z,1014.27
2016-05-10T05:12:50.130Z,1014.3
2016-05-10T05:13:49.196Z,1014.25
2016-05-10T05:14:49.198Z,1014.26
2016-05-10T05:15:49.200Z,1014.26
2016-05-10T05:16:49.220Z,1014.23
2016-05-10T05:17:49.222Z,1014.23
2016-05-10T05:18:49.240Z,1014.23
2016-05-10T05:19:49.242Z,1014.24
2016-05-10T05:20:49.245Z,1014.21
2016-05-10T05:21:49.264Z,1014.22
2016-05-10T05:22:49.266Z,1014.24
2016-05-10T05:23:49.285Z,1014.23
2016-05-10T05:24:49.288Z,1014.25
2016-05-10T05:25:49.306Z,1014.26
2016-05-10T05:26:49.308Z,1014.27
2016-05-10T05:27:49.311Z,1014.25
2016-05-10T05:28:49.329Z,1014.29
2016-05-10T05:29:49.597Z,1014.31
2016-05-10T05:30:49.350Z,1014.33
2016-05-10T05:31:49.352Z,1014.33
2016-05-10T05:32:49.372Z,1014.29
2016-05-10T05:33:49.375Z,1014.32
2016-05-10T05:34:49.393Z,1014.37
2016-05-10T05:35:49.395Z,1014.27
2016-05-10T05:36:49.413Z,1014.3
2016-05-10T05:37:49.416Z,1014.33
2016-05-10T05:38:49.434Z,1014.39
2016-05-10T05:39:49.437Z,1014.38
2016-05-10T05:40:49.456Z,1014.35
2016-05-10T05:41:49.459Z,1014.42
2016-05-10T05:42:49.476Z,1014.48
2016-05-10T05:43:49.495Z,1014.44
2016-05-10T05:44:49.498Z,1014.48
2016-05-10T05:45:49.515Z,1014.47
2016-05-10T05:46:49.518Z,1014.47
2016-05-10T05:47:49.537Z,1014.5
2016-05-10T05:48:49.539Z,1014.55
2016-05-10T05:49:49.559Z,1014.57
2016-05-10T05:50:49.576Z,1014.58
2016-05-10T05:51:49.578Z,1014.67
2016-05-10T05:52:49.581Z,1014.69
2016-05-10T05:53:49.600Z,1014.72
2016-05-10T05:54:49.618Z,1014.78
2016-05-10T05:55:49.621Z,1014.79
2016-05-10T05:56:49.639Z,1014.91
2016-05-10T05:57:49.657Z,1015.06
2016-05-10T05:58:49.660Z,1015.06
2016-05-10T05:59:49.725Z,1015.16
2016-05-10T06:00:49.681Z,1015.21
2016-05-10T06:01:49.699Z,1015.06
2016-05-10T06:02:49.718Z,1015.22
2016-05-10T06:03:49.721Z,1015.29
2016-05-10T06:04:49.739Z,1015.39
2016-05-10T06:05:49.757Z,1015.49
2016-05-10T06:06:49.776Z,1015.58
2016-05-10T06:07:49.779Z,1015.72
2016-05-10T06:08:49.797Z,1015.77
2016-05-10T06:09:49.798Z,1015.75
2016-05-10T06:10:49.817Z,1015.8
2016-05-10T06:11:49.851Z,1016
2016-05-10T06:12:49.854Z,1015.89
2016-05-10T06:13:49.857Z,1015.79
2016-05-10T06:14:49.876Z,1015.77
2016-05-10T06:15:49.893Z,1015.76
2016-05-10T06:16:49.895Z,1015.87
2016-05-10T06:17:51.320Z,1015.95
2016-05-10T06:18:49.933Z,1016.11
2016-05-10T06:19:49.936Z,1016.08
2016-05-10T06:20:49.954Z,1016.02
2016-05-10T06:21:49.973Z,1015.99
2016-05-10T06:22:49.990Z,1015.9
2016-05-10T06:23:49.993Z,1015.77
2016-05-10T06:24:50.011Z,1015.79
2016-05-10T06:26:50.985Z,1015.76
2016-05-10T06:27:50.051Z,1015.85
2016-05-10T06:28:50.069Z,1015.85
2016-05-10T06:29:50.431Z,1015.67
2016-05-10T06:30:50.090Z,1015.69
2016-05-10T06:31:50.109Z,1015.77
2016-05-10T06:32:50.813Z,1015.77
2016-05-10T06:33:50.551Z,1015.77
2016-05-10T06:34:50.147Z,1015.72
2016-05-10T06:35:50.275Z,1015.69
2016-05-10T06:36:50.527Z,1015.63
2016-05-10T06:37:50.203Z,1015.66
2016-05-10T06:38:50.721Z,1015.69
2016-05-10T06:39:50.239Z,1015.68
2016-05-10T06:40:50.242Z,1015.55
2016-05-10T06:41:50.260Z,1015.59
2016-05-10T06:42:50.279Z,1015.57
2016-05-10T06:43:50.297Z,1015.57
2016-05-10T06:44:50.315Z,1015.45
2016-05-10T06:45:50.334Z,1015.38
2016-05-10T06:46:50.352Z,1015.36
2016-05-10T06:47:50.370Z,1015.33
2016-05-10T06:48:50.373Z,1015.35
2016-05-10T06:49:50.392Z,1015.39
2016-05-10T06:50:50.409Z,1015.22
2016-05-10T06:51:50.428Z,1015.22
2016-05-10T06:52:50.446Z,1015.28
2016-05-10T06:53:50.465Z,1015.23
2016-05-10T06:54:50.483Z,1015.24
2016-05-10T06:55:50.500Z,1015.21
2016-05-10T06:56:50.519Z,1015.14
2016-05-10T06:57:50.538Z,1015.1
2016-05-10T06:58:50.556Z,1015.06
2016-05-10T06:59:50.574Z,1015.06
2016-05-10T07:00:50.592Z,1015.08
2016-05-10T07:01:50.610Z,1015.14
2016-05-10T07:02:50.630Z,1015.08
2016-05-10T07:03:50.647Z,1015.12
2016-05-10T07:04:50.650Z,1015.06
2016-05-10T07:05:50.668Z,1015.13
2016-05-10T07:06:50.687Z,1015.12
2016-05-10T07:07:50.705Z,1015.11
2016-05-10T07:08:50.723Z,1015.21
2016-05-10T07:09:50.742Z,1015.19
2016-05-10T07:10:50.760Z,1015.16
2016-05-10T07:11:50.778Z,1015.19
2016-05-10T07:12:50.796Z,1015.25
2016-05-10T07:13:50.815Z,1015.26
2016-05-10T07:14:51.099Z,1015.17
2016-05-10T07:15:50.852Z,1015.21
2016-05-10T07:16:50.870Z,1015.15
2016-05-10T07:17:50.873Z,1015.13
2016-05-10T07:18:50.890Z,1015.14
2016-05-10T07:19:50.910Z,1015.16
2016-05-10T07:20:50.928Z,1015.16
2016-05-10T07:21:50.945Z,1015.15
2016-05-10T07:22:50.964Z,1015.2
2016-05-10T07:23:50.983Z,1015.18
2016-05-10T07:24:51.001Z,1015.11
2016-05-10T07:25:51.020Z,1015.15
2016-05-10T07:26:51.037Z,1015.13
2016-05-10T07:27:51.056Z,1015.22
2016-05-10T07:28:51.074Z,1015.07
2016-05-10T07:29:51.092Z,1015.08
2016-05-10T07:30:51.110Z,1015.01
2016-05-10T07:31:51.129Z,1015.06
2016-05-10T07:32:51.132Z,1015.02
2016-05-10T07:33:51.166Z,1015.13
2016-05-10T07:34:51.184Z,1014.97
2016-05-10T07:35:51.186Z,1014.88
2016-05-10T07:36:52.064Z,1014.87
2016-05-10T07:37:51.223Z,1014.86
2016-05-10T07:38:52.835Z,1014.9
2016-05-10T07:39:51.260Z,1014.89
2016-05-10T07:40:51.278Z,1014.84
2016-05-10T07:41:51.296Z,1014.83
2016-05-10T07:42:51.330Z,1014.85
2016-05-10T07:43:51.333Z,1014.81
2016-05-10T07:44:52.008Z,1014.81
2016-05-10T07:45:51.385Z,1014.78
2016-05-10T07:46:51.404Z,1014.73
2016-05-10T07:47:51.406Z,1014.71
2016-05-10T07:48:52.550Z,1014.62
2016-05-10T07:49:51.443Z,1014.59
2016-05-10T07:50:51.462Z,1014.61
2016-05-10T07:51:51.479Z,1014.54
2016-05-10T07:52:51.498Z,1014.5
2016-05-10T07:53:51.517Z,1014.49
2016-05-10T07:54:51.551Z,1014.57
2016-05-10T07:55:51.553Z,1014.55
2016-05-10T07:56:51.572Z,1014.56
2016-05-10T07:57:51.589Z,1014.6
2016-05-10T07:58:51.858Z,1014.58
2016-05-10T07:59:51.626Z,1014.47
2016-05-10T08:00:51.644Z,1014.43
2016-05-10T08:01:51.678Z,1014.55
2016-05-10T08:02:51.697Z,1014.4
2016-05-10T08:03:51.715Z,1014.47
2016-05-10T08:04:51.733Z,1014.53
2016-05-10T08:05:51.752Z,1014.51
2016-05-10T08:06:51.770Z,1014.57
2016-05-10T08:07:51.788Z,1014.58
2016-05-10T08:08:51.807Z,1014.45
2016-05-10T08:09:51.825Z,1014.45
2016-05-10T08:10:51.843Z,1014.44
2016-05-10T08:11:51.862Z,1014.33
2016-05-10T08:12:51.880Z,1014.18
2016-05-10T08:13:51.898Z,1014.14
2016-05-10T08:14:51.916Z,1014.12
2016-05-10T08:15:51.951Z,1014.1
2016-05-10T08:16:51.953Z,1013.94
2016-05-10T08:17:51.987Z,1014.02
2016-05-10T08:18:51.990Z,1013.92
2016-05-10T08:19:52.009Z,1013.89
2016-05-10T08:20:52.042Z,1013.89
2016-05-10T08:21:52.060Z,1013.99
2016-05-10T08:22:52.063Z,1013.86
2016-05-10T08:23:52.082Z,1013.93
2016-05-10T08:24:52.100Z,1013.97
2016-05-10T08:25:52.117Z,1013.77
2016-05-10T08:26:52.136Z,1013.82
2016-05-10T08:27:52.155Z,1013.81
2016-05-10T08:28:52.173Z,1013.83
2016-05-10T08:29:52.363Z,1013.77
2016-05-10T08:30:52.319Z,1013.77
2016-05-10T08:31:52.228Z,1013.72
2016-05-10T08:32:53.449Z,1013.77
2016-05-10T08:33:52.265Z,1013.83
2016-05-10T08:34:52.283Z,1013.72
2016-05-10T08:35:52.285Z,1013.68
2016-05-10T08:38:52.340Z,1013.32
2016-05-10T08:39:52.358Z,1013.13
2016-05-10T08:40:52.377Z,1013.23
2016-05-10T08:41:52.379Z,1013.11
2016-05-10T08:42:52.398Z,1013.12
2016-05-10T08:43:52.416Z,1013.08
2016-05-10T08:44:52.435Z,1013.03
2016-05-10T08:45:52.437Z,1012.95
2016-05-10T08:46:52.471Z,1013.06
2016-05-10T08:47:52.474Z,1013.06
2016-05-10T08:48:52.477Z,1012.94
2016-05-10T08:49:52.495Z,1012.94
2016-05-10T08:50:52.498Z,1013
2016-05-10T08:51:52.516Z,1013.16
2016-05-10T08:52:52.535Z,1013.04
2016-05-10T08:53:52.537Z,1012.99
2016-05-10T08:54:52.587Z,1013.03
2016-05-10T08:55:53.809Z,1012.98
2016-05-10T08:56:52.576Z,1012.92
2016-05-10T08:57:53.204Z,1012.98
2016-05-10T08:58:53.113Z,1012.87
2016-05-10T08:59:52.600Z,1012.93
2016-05-10T09:00:53.259Z,1012.9
2016-05-10T09:01:52.621Z,1012.95
2016-05-10T09:02:52.624Z,1012.94
2016-05-10T09:03:53.188Z,1012.88
2016-05-10T09:05:52.648Z,1012.88
2016-05-10T09:06:52.806Z,1012.75
2016-05-10T09:07:52.669Z,1012.92
2016-05-10T09:08:52.672Z,1012.81
2016-05-10T09:09:52.674Z,1012.83
2016-05-10T09:10:52.692Z,1012.7
2016-05-10T09:11:52.758Z,1012.77
2016-05-10T09:12:52.697Z,1012.76
2016-05-10T09:13:52.700Z,1012.9
2016-05-10T09:14:52.875Z,1012.8
2016-05-10T09:15:52.721Z,1012.7
2016-05-10T09:16:52.724Z,1012.76
2016-05-10T09:17:52.727Z,1012.72
2016-05-10T09:18:52.766Z,1012.72
2016-05-10T09:19:52.827Z,1012.67
2016-05-10T09:20:52.871Z,1012.72
2016-05-10T09:21:52.915Z,1012.77
2016-05-10T09:22:52.959Z,1012.6
2016-05-10T09:23:52.979Z,1012.62
2016-05-10T09:24:52.997Z,1012.58
2016-05-10T09:25:53.030Z,1012.56
2016-05-10T09:26:53.048Z,1012.55
2016-05-10T09:27:53.065Z,1012.62
2016-05-10T09:28:53.074Z,1012.55
2016-05-10T09:29:53.224Z,1012.54
2016-05-10T09:30:53.090Z,1012.5
2016-05-10T09:31:53.099Z,1012.58
2016-05-10T09:32:53.122Z,1012.39
2016-05-10T09:33:53.128Z,1012.6
2016-05-10T09:34:53.132Z,1012.53
2016-05-10T09:35:53.136Z,1012.59
2016-05-10T09:36:53.141Z,1012.53
2016-05-10T09:37:53.146Z,1012.48
2016-05-10T09:38:53.149Z,1012.38
2016-05-10T09:39:53.153Z,1012.4
2016-05-10T09:40:53.172Z,1012.41
2016-05-10T09:41:53.176Z,1012.43
2016-05-10T09:42:53.180Z,1012.4
2016-05-10T09:43:53.182Z,1012.34
2016-05-10T09:44:53.186Z,1012.39
2016-05-10T09:45:53.188Z,1012.48
2016-05-10T09:46:53.207Z,1012.37
2016-05-10T09:47:53.195Z,1012.35
2016-05-10T09:48:53.212Z,1012.34
2016-05-10T09:49:53.200Z,1012.39
2016-05-10T09:50:53.217Z,1012.27
2016-05-10T09:51:53.236Z,1012.25
2016-05-10T09:52:53.223Z,1012.29
2016-05-10T09:53:53.226Z,1012.26
2016-05-10T09:54:53.228Z,1012.29
2016-05-10T09:55:53.231Z,1012.21
2016-05-10T09:56:53.234Z,1012.25
2016-05-10T09:57:53.236Z,1012.25
2016-05-10T09:58:53.256Z,1012.27
2016-05-10T09:59:53.258Z,1012.28
2016-05-10T10:00:53.261Z,1012.23
2016-05-10T10:01:53.263Z,1012.24
2016-05-10T10:02:53.266Z,1012.26
2016-05-10T10:03:53.269Z,1012.22
2016-05-10T10:04:53.271Z,1012.29
2016-05-10T10:05:53.289Z,1012.2
2016-05-10T10:06:53.292Z,1012.15
2016-05-10T10:07:53.294Z,1012.1
2016-05-10T10:08:53.298Z,1012.15
2016-05-10T10:09:53.300Z,1012.02
2016-05-10T10:10:53.303Z,1012.16
2016-05-10T10:11:53.306Z,1012.11
2016-05-10T10:12:53.308Z,1012.06
2016-05-10T10:13:53.327Z,1012.09
2016-05-10T10:14:53.329Z,1012.1
2016-05-10T10:15:53.332Z,1012.13
2016-05-10T10:16:53.757Z,1012.05
2016-05-10T10:17:53.337Z,1012.07
2016-05-10T10:18:54.106Z,1012.16
2016-05-10T10:19:53.342Z,1011.96
2016-05-10T10:20:53.346Z,1012.04
2016-05-10T10:21:53.754Z,1011.94
2016-05-10T10:22:54.070Z,1011.99
2016-05-10T10:23:53.369Z,1011.94
2016-05-10T10:24:53.373Z,1011.88
2016-05-10T10:25:53.375Z,1011.86
2016-05-10T10:26:53.378Z,1011.95
2016-05-10T10:27:53.381Z,1011.94
2016-05-10T10:28:53.898Z,1011.85
2016-05-10T10:29:53.386Z,1011.95
2016-05-10T10:31:53.406Z,1011.82
2016-05-10T10:32:53.409Z,1011.76
2016-05-10T10:33:53.411Z,1011.84
2016-05-10T10:34:53.461Z,1011.74
2016-05-10T10:35:53.417Z,1011.76
2016-05-10T10:36:53.419Z,1011.81
2016-05-10T10:37:53.422Z,1011.77
2016-05-10T10:38:53.441Z,1011.68
2016-05-10T10:39:53.443Z,1011.73
2016-05-10T10:40:53.447Z,1011.77
2016-05-10T10:41:53.449Z,1011.72
2016-05-10T10:42:53.452Z,1011.76
2016-05-10T10:43:53.455Z,1011.67
2016-05-10T10:44:53.457Z,1011.78
2016-05-10T10:45:53.460Z,1011.74
2016-05-10T10:46:53.463Z,1011.65
2016-05-10T10:47:53.481Z,1011.72
2016-05-10T10:48:53.483Z,1011.63
2016-05-10T10:49:53.487Z,1011.64
2016-05-10T10:50:53.490Z,1011.6
2016-05-10T10:51:53.492Z,1011.62
2016-05-10T10:52:53.495Z,1011.54
2016-05-10T10:53:53.497Z,1011.57
2016-05-10T10:54:53.500Z,1011.6
2016-05-10T10:55:53.517Z,1011.59
2016-05-10T10:56:53.520Z,1011.45
2016-05-10T10:57:53.523Z,1011.51
2016-05-10T10:58:53.526Z,1011.48
2016-05-10T10:59:53.529Z,1011.63
2016-05-10T11:00:53.531Z,1011.51
2016-05-10T11:01:53.534Z,1011.49
2016-05-10T11:02:53.537Z,1011.49
2016-05-10T11:03:53.556Z,1011.41
2016-05-10T11:04:53.558Z,1011.53
2016-05-10T11:05:53.561Z,1011.41
2016-05-10T11:06:53.563Z,1011.48
2016-05-10T11:07:53.566Z,1011.39
2016-05-10T11:08:53.568Z,1011.41
2016-05-10T11:09:53.571Z,1011.39
2016-05-10T11:10:53.574Z,1011.38
2016-05-10T11:11:53.592Z,1011.37
2016-05-10T11:12:53.594Z,1011.32
2016-05-10T11:13:53.597Z,1011.22
2016-05-10T11:14:53.600Z,1011.27
2016-05-10T11:15:53.602Z,1011.22
2016-05-10T11:19:53.629Z,1011.26
2016-05-10T11:20:53.632Z,1011.2
2016-05-10T11:21:53.635Z,1011.2
2016-05-10T11:22:53.638Z,1011.26
2016-05-10T11:23:53.640Z,1011.4
2016-05-10T11:24:53.643Z,1011.35
2016-05-10T11:25:53.646Z,1011.26
2016-05-10T11:26:53.664Z,1011.36
2016-05-10T11:27:53.667Z,1011.4
2016-05-10T11:28:53.670Z,1011.25
2016-05-10T11:29:53.687Z,1011.39
2016-05-10T11:30:53.675Z,1011.21
2016-05-10T11:31:53.692Z,1011.2
2016-05-10T11:32:53.680Z,1011.13
2016-05-10T11:33:53.697Z,1011.17
2016-05-10T11:34:53.700Z,1011.16
2016-05-10T11:35:53.703Z,1011.09
2016-05-10T11:36:53.706Z,1011.1
2016-05-10T11:37:53.708Z,1010.98
2016-05-10T11:38:53.711Z,1011.06
2016-05-10T11:39:54.042Z,1011.08
2016-05-10T11:40:54.670Z,1011.01
2016-05-10T11:41:54.439Z,1010.94
2016-05-10T11:42:53.738Z,1010.95
2016-05-10T11:43:53.865Z,1011.04
2016-05-10T11:44:53.744Z,1010.9
2016-05-10T11:45:53.747Z,1010.85
2016-05-10T11:46:53.780Z,1010.88
2016-05-10T11:48:53.770Z,1010.82
2016-05-10T11:49:53.976Z,1010.82
2016-05-10T11:53:53.784Z,1011
2016-05-10T11:54:53.786Z,1010.87
2016-05-10T11:55:53.789Z,1010.81
2016-05-10T11:56:53.807Z,1010.84
2016-05-10T11:57:53.809Z,1010.72
2016-05-10T11:58:53.812Z,1010.72
2016-05-10T11:59:53.815Z,1010.96
2016-05-10T12:00:53.817Z,1010.87
2016-05-10T12:01:53.836Z,1010.76
2016-05-10T12:05:53.847Z,1010.75
2016-05-10T12:07:53.852Z,1010.57
2016-05-10T12:08:53.870Z,1010.73
2016-05-10T12:09:53.858Z,1010.8
2016-05-10T12:10:53.876Z,1010.69
2016-05-10T12:11:53.878Z,1010.63
2016-05-10T12:12:53.881Z,1010.59
2016-05-10T12:13:53.884Z,1010.63
2016-05-10T12:14:53.886Z,1010.62
2016-05-10T12:15:53.889Z,1010.67
2016-05-10T12:16:53.892Z,1010.63
2016-05-10T12:17:53.894Z,1010.63
2016-05-10T12:18:53.913Z,1010.74
2016-05-10T12:19:53.916Z,1010.56
2016-05-10T12:20:53.918Z,1010.63
2016-05-10T12:21:53.921Z,1010.59
2016-05-10T12:22:53.924Z,1010.53
2016-05-10T12:24:20.317Z,1010.6
2016-05-10T12:24:53.930Z,1010.44
2016-05-10T12:25:53.948Z,1010.45
2016-05-10T12:26:53.950Z,1010.51